sensor_id;sensor_type;location;lat;lon;timestamp;P1;durP1;ratioP1;P2;durP2;ratioP2
15876;SDS011;8037;51.666;7.834;2023-09-08T00:02:18;4.37;;;3.70;;
15876;SDS011;8037;51.666;7.834;2023-09-08T00:04:44;13.80;;;3.20;;
15876;SDS011;8037;51.666;7.834;2023-09-08T00:07:10;3.33;;;3.13;;
15876;SDS011;8037;51.666;7.834;2023-09-08T00:09:36;5.03;;;3.50;;
15876;SDS011;8037;51.666;7.834;2023-09-08T00:12:02;3.60;;;3.30;;
15876;SDS011;8037;51.666;7.834;2023-09-08T00:14:28;4.27;;;2.97;;
15876;SDS011;8037;51.666;7.834;2023-09-08T00:16:54;3.80;;;3.40;;
15876;SDS011;8037;51.666;7.834;2023-09-08T00:19:23;3.70;;;3.40;;
15876;SDS011;8037;51.666;7.834;2023-09-08T00:21:49;9.90;;;3.90;;
15876;SDS011;8037;51.666;7.834;2023-09-08T00:24:15;3.87;;;3.57;;
15876;SDS011;8037;51.666;7.834;2023-09-08T00:26:41;5.93;;;3.93;;
15876;SDS011;8037;51.666;7.834;2023-09-08T00:29:07;3.70;;;3.30;;
15876;SDS011;8037;51.666;7.834;2023-09-08T00:31:33;4.40;;;4.00;;
15876;SDS011;8037;51.666;7.834;2023-09-08T00:33:59;4.23;;;3.90;;
15876;SDS011;8037;51.666;7.834;2023-09-08T00:36:25;4.47;;;4.07;;
15876;SDS011;8037;51.666;7.834;2023-09-08T00:38:51;5.70;;;5.20;;
15876;SDS011;8037;51.666;7.834;2023-09-08T00:41:17;4.73;;;4.17;;
15876;SDS011;8037;51.666;7.834;2023-09-08T00:43:43;4.20;;;3.83;;
15876;SDS011;8037;51.666;7.834;2023-09-08T00:46:09;4.97;;;4.20;;
15876;SDS011;8037;51.666;7.834;2023-09-08T00:48:35;5.90;;;4.73;;
15876;SDS011;8037;51.666;7.834;2023-09-08T00:51:02;4.60;;;4.20;;
15876;SDS011;8037;51.666;7.834;2023-09-08T00:53:30;5.93;;;4.17;;
15876;SDS011;8037;51.666;7.834;2023-09-08T00:55:56;6.27;;;3.90;;
15876;SDS011;8037;51.666;7.834;2023-09-08T00:58:23;5.80;;;4.87;;
15876;SDS011;8037;51.666;7.834;2023-09-08T01:00:49;6.40;;;4.50;;
15876;SDS011;8037;51.666;7.834;2023-09-08T01:03:15;5.47;;;4.17;;
15876;SDS011;8037;51.666;7.834;2023-09-08T01:05:41;15.80;;;4.47;;
15876;SDS011;8037;51.666;7.834;2023-09-08T01:08:07;4.43;;;4.00;;
15876;SDS011;8037;51.666;7.834;2023-09-08T01:10:33;5.37;;;4.70;;
15876;SDS011;8037;51.666;7.834;2023-09-08T01:12:59;4.70;;;4.23;;
15876;SDS011;8037;51.666;7.834;2023-09-08T01:15:25;6.50;;;5.30;;
15876;SDS011;8037;51.666;7.834;2023-09-08T01:17:51;8.43;;;5.03;;
15876;SDS011;8037;51.666;7.834;2023-09-08T01:20:17;5.00;;;4.60;;
15876;SDS011;8037;51.666;7.834;2023-09-08T01:25:20;5.90;;;4.50;;
15876;SDS011;8037;51.666;7.834;2023-09-08T01:27:54;12.50;;;4.73;;
15876;SDS011;8037;51.666;7.834;2023-09-08T01:30:21;4.57;;;3.70;;
15876;SDS011;8037;51.666;7.834;2023-09-08T01:32:49;18.03;;;4.83;;
15876;SDS011;8037;51.666;7.834;2023-09-08T01:35:16;6.10;;;4.83;;
15876;SDS011;8037;51.666;7.834;2023-09-08T01:37:44;5.43;;;4.47;;
15876;SDS011;8037;51.666;7.834;2023-09-08T01:40:10;6.17;;;5.17;;
15876;SDS011;8037;51.666;7.834;2023-09-08T01:42:37;13.83;;;4.37;;
15876;SDS011;8037;51.666;7.834;2023-09-08T01:45:03;5.17;;;4.33;;
15876;SDS011;8037;51.666;7.834;2023-09-08T01:47:29;8.70;;;4.87;;
15876;SDS011;8037;51.666;7.834;2023-09-08T01:49:56;5.73;;;4.97;;
15876;SDS011;8037;51.666;7.834;2023-09-08T01:52:22;10.83;;;5.33;;
15876;SDS011;8037;51.666;7.834;2023-09-08T01:54:48;4.77;;;4.37;;
15876;SDS011;8037;51.666;7.834;2023-09-08T01:57:13;5.97;;;5.07;;
15876;SDS011;8037;51.666;7.834;2023-09-08T01:59:39;7.57;;;4.23;;
15876;SDS011;8037;51.666;7.834;2023-09-08T02:02:05;4.70;;;4.23;;
15876;SDS011;8037;51.666;7.834;2023-09-08T02:04:31;4.73;;;4.33;;
15876;SDS011;8037;51.666;7.834;2023-09-08T02:06:57;5.03;;;4.50;;
15876;SDS011;8037;51.666;7.834;2023-09-08T02:09:29;12.10;;;4.57;;
15876;SDS011;8037;51.666;7.834;2023-09-08T02:11:56;12.87;;;5.43;;
15876;SDS011;8037;51.666;7.834;2023-09-08T02:14:21;16.63;;;5.00;;
15876;SDS011;8037;51.666;7.834;2023-09-08T02:16:47;7.13;;;6.13;;
15876;SDS011;8037;51.666;7.834;2023-09-08T02:19:13;10.03;;;5.97;;
15876;SDS011;8037;51.666;7.834;2023-09-08T02:21:39;5.17;;;4.77;;
15876;SDS011;8037;51.666;7.834;2023-09-08T02:24:05;6.13;;;5.53;;
15876;SDS011;8037;51.666;7.834;2023-09-08T02:26:31;5.83;;;4.90;;
15876;SDS011;8037;51.666;7.834;2023-09-08T02:28:58;10.07;;;5.33;;
15876;SDS011;8037;51.666;7.834;2023-09-08T02:31:25;6.23;;;5.63;;
15876;SDS011;8037;51.666;7.834;2023-09-08T02:33:51;7.00;;;5.10;;
15876;SDS011;8037;51.666;7.834;2023-09-08T02:36:17;8.33;;;5.57;;
15876;SDS011;8037;51.666;7.834;2023-09-08T02:38:50;5.90;;;5.40;;
15876;SDS011;8037;51.666;7.834;2023-09-08T02:41:16;5.37;;;4.80;;
15876;SDS011;8037;51.666;7.834;2023-09-08T02:43:41;6.20;;;5.60;;
15876;SDS011;8037;51.666;7.834;2023-09-08T02:46:07;5.47;;;5.00;;
15876;SDS011;8037;51.666;7.834;2023-09-08T02:48:34;5.93;;;5.30;;
15876;SDS011;8037;51.666;7.834;2023-09-08T02:51:00;6.03;;;5.43;;
15876;SDS011;8037;51.666;7.834;2023-09-08T02:53:26;5.87;;;5.23;;
15876;SDS011;8037;51.666;7.834;2023-09-08T02:55:56;6.20;;;5.57;;
15876;SDS011;8037;51.666;7.834;2023-09-08T02:58:23;6.00;;;5.40;;
15876;SDS011;8037;51.666;7.834;2023-09-08T03:00:48;7.13;;;5.47;;
15876;SDS011;8037;51.666;7.834;2023-09-08T03:03:16;8.43;;;6.27;;
15876;SDS011;8037;51.666;7.834;2023-09-08T03:05:42;7.23;;;5.03;;
15876;SDS011;8037;51.666;7.834;2023-09-08T03:08:08;9.80;;;5.57;;
15876;SDS011;8037;51.666;7.834;2023-09-08T03:10:34;9.80;;;5.30;;
15876;SDS011;8037;51.666;7.834;2023-09-08T03:13:01;6.60;;;5.20;;
15876;SDS011;8037;51.666;7.834;2023-09-08T03:15:26;5.23;;;4.83;;
15876;SDS011;8037;51.666;7.834;2023-09-08T03:17:56;19.87;;;6.30;;
15876;SDS011;8037;51.666;7.834;2023-09-08T03:20:23;5.63;;;4.27;;
15876;SDS011;8037;51.666;7.834;2023-09-08T03:22:50;6.00;;;5.20;;
15876;SDS011;8037;51.666;7.834;2023-09-08T03:25:16;9.83;;;6.07;;
15876;SDS011;8037;51.666;7.834;2023-09-08T03:27:42;5.57;;;5.13;;
15876;SDS011;8037;51.666;7.834;2023-09-08T03:30:08;14.23;;;4.93;;
15876;SDS011;8037;51.666;7.834;2023-09-08T03:32:34;8.20;;;5.67;;
15876;SDS011;8037;51.666;7.834;2023-09-08T03:35:00;14.83;;;4.60;;
15876;SDS011;8037;51.666;7.834;2023-09-08T03:37:26;5.77;;;4.80;;
15876;SDS011;8037;51.666;7.834;2023-09-08T03:39:52;8.07;;;4.67;;
15876;SDS011;8037;51.666;7.834;2023-09-08T03:42:18;5.67;;;5.10;;
15876;SDS011;8037;51.666;7.834;2023-09-08T03:44:44;6.90;;;5.60;;
15876;SDS011;8037;51.666;7.834;2023-09-08T03:47:10;5.23;;;4.73;;
15876;SDS011;8037;51.666;7.834;2023-09-08T03:49:36;8.60;;;6.07;;
15876;SDS011;8037;51.666;7.834;2023-09-08T03:52:02;7.53;;;5.43;;
15876;SDS011;8037;51.666;7.834;2023-09-08T03:54:28;9.00;;;4.70;;
15876;SDS011;8037;51.666;7.834;2023-09-08T03:56:54;6.10;;;5.23;;
15876;SDS011;8037;51.666;7.834;2023-09-08T03:59:20;9.63;;;4.90;;
15876;SDS011;8037;51.666;7.834;2023-09-08T04:01:46;5.17;;;4.77;;
15876;SDS011;8037;51.666;7.834;2023-09-08T04:04:12;6.00;;;5.10;;
15876;SDS011;8037;51.666;7.834;2023-09-08T04:06:38;12.83;;;5.27;;
15876;SDS011;8037;51.666;7.834;2023-09-08T04:09:04;8.30;;;5.10;;
15876;SDS011;8037;51.666;7.834;2023-09-08T04:11:30;10.20;;;5.40;;
15876;SDS011;8037;51.666;7.834;2023-09-08T04:13:56;5.30;;;4.80;;
15876;SDS011;8037;51.666;7.834;2023-09-08T04:16:22;6.00;;;5.50;;
15876;SDS011;8037;51.666;7.834;2023-09-08T04:18:48;7.10;;;5.10;;
15876;SDS011;8037;51.666;7.834;2023-09-08T04:21:14;7.67;;;5.97;;
15876;SDS011;8037;51.666;7.834;2023-09-08T04:23:40;10.90;;;4.77;;
15876;SDS011;8037;51.666;7.834;2023-09-08T04:26:06;5.23;;;4.73;;
15876;SDS011;8037;51.666;7.834;2023-09-08T04:28:32;5.67;;;5.20;;
15876;SDS011;8037;51.666;7.834;2023-09-08T04:30:57;14.20;;;5.07;;
15876;SDS011;8037;51.666;7.834;2023-09-08T04:33:24;6.63;;;4.93;;
15876;SDS011;8037;51.666;7.834;2023-09-08T04:35:50;5.90;;;5.40;;
15876;SDS011;8037;51.666;7.834;2023-09-08T04:38:15;14.63;;;6.37;;
15876;SDS011;8037;51.666;7.834;2023-09-08T04:40:41;11.93;;;5.00;;
15876;SDS011;8037;51.666;7.834;2023-09-08T04:43:07;5.73;;;5.13;;
15876;SDS011;8037;51.666;7.834;2023-09-08T04:45:33;5.10;;;4.60;;
15876;SDS011;8037;51.666;7.834;2023-09-08T04:47:59;5.80;;;5.30;;
15876;SDS011;8037;51.666;7.834;2023-09-08T04:50:25;5.70;;;5.20;;
15876;SDS011;8037;51.666;7.834;2023-09-08T04:52:51;5.67;;;4.97;;
15876;SDS011;8037;51.666;7.834;2023-09-08T04:55:17;9.67;;;6.47;;
15876;SDS011;8037;51.666;7.834;2023-09-08T04:57:44;11.80;;;5.50;;
15876;SDS011;8037;51.666;7.834;2023-09-08T05:00:10;5.47;;;4.90;;
15876;SDS011;8037;51.666;7.834;2023-09-08T05:02:36;15.90;;;6.20;;
15876;SDS011;8037;51.666;7.834;2023-09-08T05:05:03;5.63;;;5.03;;
15876;SDS011;8037;51.666;7.834;2023-09-08T05:07:29;5.87;;;5.37;;
15876;SDS011;8037;51.666;7.834;2023-09-08T05:09:55;7.97;;;5.70;;
15876;SDS011;8037;51.666;7.834;2023-09-08T05:12:21;10.53;;;4.97;;
15876;SDS011;8037;51.666;7.834;2023-09-08T05:14:47;10.53;;;5.23;;
15876;SDS011;8037;51.666;7.834;2023-09-08T05:17:13;5.80;;;5.00;;
15876;SDS011;8037;51.666;7.834;2023-09-08T05:19:39;6.20;;;5.60;;
15876;SDS011;8037;51.666;7.834;2023-09-08T05:22:05;8.43;;;6.17;;
15876;SDS011;8037;51.666;7.834;2023-09-08T05:24:32;5.93;;;5.43;;
15876;SDS011;8037;51.666;7.834;2023-09-08T05:26:58;6.40;;;5.77;;
15876;SDS011;8037;51.666;7.834;2023-09-08T05:29:24;5.43;;;4.93;;
15876;SDS011;8037;51.666;7.834;2023-09-08T05:31:50;5.90;;;5.20;;
15876;SDS011;8037;51.666;7.834;2023-09-08T05:34:16;4.67;;;4.27;;
15876;SDS011;8037;51.666;7.834;2023-09-08T05:36:42;8.10;;;4.60;;
15876;SDS011;8037;51.666;7.834;2023-09-08T05:39:08;10.30;;;4.60;;
15876;SDS011;8037;51.666;7.834;2023-09-08T05:41:35;5.73;;;5.13;;
15876;SDS011;8037;51.666;7.834;2023-09-08T05:44:01;7.93;;;4.70;;
15876;SDS011;8037;51.666;7.834;2023-09-08T05:46:27;5.70;;;4.40;;
15876;SDS011;8037;51.666;7.834;2023-09-08T05:48:53;7.17;;;5.17;;
15876;SDS011;8037;51.666;7.834;2023-09-08T05:51:19;5.63;;;5.17;;
15876;SDS011;8037;51.666;7.834;2023-09-08T05:53:45;4.83;;;4.50;;
15876;SDS011;8037;51.666;7.834;2023-09-08T05:56:11;5.77;;;5.20;;
15876;SDS011;8037;51.666;7.834;2023-09-08T05:58:37;4.87;;;4.17;;
15876;SDS011;8037;51.666;7.834;2023-09-08T06:01:03;5.20;;;4.70;;
15876;SDS011;8037;51.666;7.834;2023-09-08T06:03:29;5.07;;;4.63;;
15876;SDS011;8037;51.666;7.834;2023-09-08T06:05:55;6.13;;;4.80;;
15876;SDS011;8037;51.666;7.834;2023-09-08T06:08:21;6.50;;;3.80;;
15876;SDS011;8037;51.666;7.834;2023-09-08T06:10:48;6.10;;;5.60;;
15876;SDS011;8037;51.666;7.834;2023-09-08T06:13:14;6.00;;;4.80;;
15876;SDS011;8037;51.666;7.834;2023-09-08T06:15:40;6.43;;;4.50;;
15876;SDS011;8037;51.666;7.834;2023-09-08T06:18:06;11.37;;;4.63;;
15876;SDS011;8037;51.666;7.834;2023-09-08T06:20:32;6.87;;;4.90;;
15876;SDS011;8037;51.666;7.834;2023-09-08T06:22:58;5.00;;;4.50;;
15876;SDS011;8037;51.666;7.834;2023-09-08T06:25:24;10.90;;;4.70;;
15876;SDS011;8037;51.666;7.834;2023-09-08T06:27:50;14.73;;;4.93;;
15876;SDS011;8037;51.666;7.834;2023-09-08T06:30:16;6.63;;;4.23;;
15876;SDS011;8037;51.666;7.834;2023-09-08T06:32:43;5.07;;;4.60;;
15876;SDS011;8037;51.666;7.834;2023-09-08T06:35:08;12.30;;;4.83;;
15876;SDS011;8037;51.666;7.834;2023-09-08T06:37:35;4.70;;;4.33;;
15876;SDS011;8037;51.666;7.834;2023-09-08T06:40:01;5.33;;;4.83;;
15876;SDS011;8037;51.666;7.834;2023-09-08T06:42:27;5.40;;;4.70;;
15876;SDS011;8037;51.666;7.834;2023-09-08T06:44:53;4.57;;;3.77;;
15876;SDS011;8037;51.666;7.834;2023-09-08T06:47:19;9.70;;;4.47;;
15876;SDS011;8037;51.666;7.834;2023-09-08T06:49:45;7.47;;;4.50;;
15876;SDS011;8037;51.666;7.834;2023-09-08T06:52:11;4.77;;;4.17;;
15876;SDS011;8037;51.666;7.834;2023-09-08T06:54:37;11.90;;;4.70;;
15876;SDS011;8037;51.666;7.834;2023-09-08T06:57:03;6.67;;;4.90;;
15876;SDS011;8037;51.666;7.834;2023-09-08T06:59:29;4.77;;;4.37;;
15876;SDS011;8037;51.666;7.834;2023-09-08T07:01:55;6.23;;;4.97;;
15876;SDS011;8037;51.666;7.834;2023-09-08T07:04:21;8.53;;;5.20;;
15876;SDS011;8037;51.666;7.834;2023-09-08T07:06:47;5.07;;;3.70;;
15876;SDS011;8037;51.666;7.834;2023-09-08T07:09:15;4.57;;;4.10;;
15876;SDS011;8037;51.666;7.834;2023-09-08T07:11:41;4.60;;;4.20;;
15876;SDS011;8037;51.666;7.834;2023-09-08T07:14:07;5.07;;;3.63;;
15876;SDS011;8037;51.666;7.834;2023-09-08T07:16:33;4.47;;;4.07;;
15876;SDS011;8037;51.666;7.834;2023-09-08T07:18:59;4.67;;;4.27;;
15876;SDS011;8037;51.666;7.834;2023-09-08T07:21:26;8.40;;;4.03;;
15876;SDS011;8037;51.666;7.834;2023-09-08T07:23:52;4.73;;;4.13;;
15876;SDS011;8037;51.666;7.834;2023-09-08T07:26:19;4.23;;;3.73;;
15876;SDS011;8037;51.666;7.834;2023-09-08T07:28:45;4.10;;;3.30;;
15876;SDS011;8037;51.666;7.834;2023-09-08T07:31:11;3.50;;;3.20;;
15876;SDS011;8037;51.666;7.834;2023-09-08T07:33:37;5.80;;;4.53;;
15876;SDS011;8037;51.666;7.834;2023-09-08T07:36:06;6.17;;;3.90;;
15876;SDS011;8037;51.666;7.834;2023-09-08T07:38:33;4.47;;;3.53;;
15876;SDS011;8037;51.666;7.834;2023-09-08T07:41:01;4.87;;;3.77;;
15876;SDS011;8037;51.666;7.834;2023-09-08T07:43:27;10.27;;;3.23;;
15876;SDS011;8037;51.666;7.834;2023-09-08T07:45:53;8.13;;;3.60;;
15876;SDS011;8037;51.666;7.834;2023-09-08T07:48:19;3.43;;;3.03;;
15876;SDS011;8037;51.666;7.834;2023-09-08T07:50:45;3.33;;;3.13;;
15876;SDS011;8037;51.666;7.834;2023-09-08T07:53:11;3.57;;;3.27;;
15876;SDS011;8037;51.666;7.834;2023-09-08T07:55:37;3.70;;;3.13;;
15876;SDS011;8037;51.666;7.834;2023-09-08T07:58:03;3.70;;;3.40;;
15876;SDS011;8037;51.666;7.834;2023-09-08T08:00:30;4.13;;;3.33;;
15876;SDS011;8037;51.666;7.834;2023-09-08T08:02:57;3.30;;;2.80;;
15876;SDS011;8037;51.666;7.834;2023-09-08T08:05:24;7.87;;;3.40;;
15876;SDS011;8037;51.666;7.834;2023-09-08T08:07:50;8.50;;;3.47;;
15876;SDS011;8037;51.666;7.834;2023-09-08T08:10:16;2.87;;;2.77;;
15876;SDS011;8037;51.666;7.834;2023-09-08T08:12:42;3.63;;;2.93;;
15876;SDS011;8037;51.666;7.834;2023-09-08T08:15:08;5.53;;;2.90;;
15876;SDS011;8037;51.666;7.834;2023-09-08T08:17:38;3.63;;;3.30;;
15876;SDS011;8037;51.666;7.834;2023-09-08T08:20:05;3.17;;;2.93;;
15876;SDS011;8037;51.666;7.834;2023-09-08T08:22:33;5.63;;;2.57;;
15876;SDS011;8037;51.666;7.834;2023-09-08T08:25:01;4.23;;;3.83;;
15876;SDS011;8037;51.666;7.834;2023-09-08T08:27:28;9.90;;;2.97;;
15876;SDS011;8037;51.666;7.834;2023-09-08T08:29:55;3.70;;;3.37;;
15876;SDS011;8037;51.666;7.834;2023-09-08T08:32:22;5.47;;;2.93;;
15876;SDS011;8037;51.666;7.834;2023-09-08T08:34:48;4.73;;;2.67;;
15876;SDS011;8037;51.666;7.834;2023-09-08T08:37:14;3.73;;;3.37;;
15876;SDS011;8037;51.666;7.834;2023-09-08T08:39:40;2.97;;;2.77;;
15876;SDS011;8037;51.666;7.834;2023-09-08T08:42:07;3.07;;;2.77;;
15876;SDS011;8037;51.666;7.834;2023-09-08T08:44:33;5.60;;;3.00;;
15876;SDS011;8037;51.666;7.834;2023-09-08T08:47:00;4.90;;;3.00;;
15876;SDS011;8037;51.666;7.834;2023-09-08T08:49:28;4.10;;;3.00;;
15876;SDS011;8037;51.666;7.834;2023-09-08T08:51:56;3.57;;;2.63;;
15876;SDS011;8037;51.666;7.834;2023-09-08T08:54:23;19.77;;;3.13;;
15876;SDS011;8037;51.666;7.834;2023-09-08T08:56:50;2.40;;;2.30;;
15876;SDS011;8037;51.666;7.834;2023-09-08T08:59:16;3.30;;;3.10;;
15876;SDS011;8037;51.666;7.834;2023-09-08T09:01:43;3.30;;;2.50;;
15876;SDS011;8037;51.666;7.834;2023-09-08T09:04:10;3.30;;;2.33;;
15876;SDS011;8037;51.666;7.834;2023-09-08T09:06:36;2.67;;;2.20;;
15876;SDS011;8037;51.666;7.834;2023-09-08T09:09:02;9.57;;;6.37;;
15876;SDS011;8037;51.666;7.834;2023-09-08T09:11:29;8.33;;;5.50;;
15876;SDS011;8037;51.666;7.834;2023-09-08T09:13:56;3.37;;;3.07;;
15876;SDS011;8037;51.666;7.834;2023-09-08T09:16:22;3.37;;;2.70;;
15876;SDS011;8037;51.666;7.834;2023-09-08T09:18:55;3.67;;;3.37;;
15876;SDS011;8037;51.666;7.834;2023-09-08T09:21:25;3.00;;;2.80;;
15876;SDS011;8037;51.666;7.834;2023-09-08T09:24:06;4.23;;;2.80;;
15876;SDS011;8037;51.666;7.834;2023-09-08T09:26:32;3.37;;;3.07;;
15876;SDS011;8037;51.666;7.834;2023-09-08T09:28:58;3.73;;;2.60;;
15876;SDS011;8037;51.666;7.834;2023-09-08T09:31:24;6.50;;;2.70;;
15876;SDS011;8037;51.666;7.834;2023-09-08T09:34:03;7.73;;;3.57;;
15876;SDS011;8037;51.666;7.834;2023-09-08T09:36:30;7.07;;;3.53;;
15876;SDS011;8037;51.666;7.834;2023-09-08T09:38:59;4.37;;;3.10;;
15876;SDS011;8037;51.666;7.834;2023-09-08T09:41:27;4.27;;;3.17;;
15876;SDS011;8037;51.666;7.834;2023-09-08T09:43:54;5.97;;;4.37;;
15876;SDS011;8037;51.666;7.834;2023-09-08T09:46:20;4.07;;;2.40;;
15876;SDS011;8037;51.666;7.834;2023-09-08T09:48:49;6.00;;;3.07;;
15876;SDS011;8037;51.666;7.834;2023-09-08T09:51:17;7.93;;;3.00;;
15876;SDS011;8037;51.666;7.834;2023-09-08T09:53:44;2.47;;;2.27;;
15876;SDS011;8037;51.666;7.834;2023-09-08T09:56:11;3.53;;;2.20;;
15876;SDS011;8037;51.666;7.834;2023-09-08T09:58:37;2.60;;;2.50;;
15876;SDS011;8037;51.666;7.834;2023-09-08T10:01:03;15.50;;;2.73;;
15876;SDS011;8037;51.666;7.834;2023-09-08T10:03:29;3.23;;;3.03;;
15876;SDS011;8037;51.666;7.834;2023-09-08T10:05:57;4.97;;;2.70;;
15876;SDS011;8037;51.666;7.834;2023-09-08T10:08:23;4.03;;;2.80;;
15876;SDS011;8037;51.666;7.834;2023-09-08T10:10:49;3.30;;;3.07;;
15876;SDS011;8037;51.666;7.834;2023-09-08T10:13:21;3.97;;;2.80;;
15876;SDS011;8037;51.666;7.834;2023-09-08T10:15:49;3.17;;;2.97;;
15876;SDS011;8037;51.666;7.834;2023-09-08T10:18:16;2.80;;;2.57;;
15876;SDS011;8037;51.666;7.834;2023-09-08T10:20:44;2.27;;;2.17;;
15876;SDS011;8037;51.666;7.834;2023-09-08T10:23:19;3.57;;;2.60;;
15876;SDS011;8037;51.666;7.834;2023-09-08T10:25:46;2.47;;;2.23;;
15876;SDS011;8037;51.666;7.834;2023-09-08T10:28:18;3.33;;;2.40;;
15876;SDS011;8037;51.666;7.834;2023-09-08T10:30:45;5.90;;;2.70;;
15876;SDS011;8037;51.666;7.834;2023-09-08T10:33:32;3.87;;;2.93;;
15876;SDS011;8037;51.666;7.834;2023-09-08T10:35:58;10.20;;;2.83;;
15876;SDS011;8037;51.666;7.834;2023-09-08T10:38:29;3.00;;;2.80;;
15876;SDS011;8037;51.666;7.834;2023-09-08T10:46:26;5.30;;;2.97;;
15876;SDS011;8037;51.666;7.834;2023-09-08T10:48:53;2.47;;;2.33;;
15876;SDS011;8037;51.666;7.834;2023-09-08T10:51:20;5.23;;;2.87;;
15876;SDS011;8037;51.666;7.834;2023-09-08T10:53:47;2.83;;;2.53;;
15876;SDS011;8037;51.666;7.834;2023-09-08T10:56:17;3.63;;;2.90;;
15876;SDS011;8037;51.666;7.834;2023-09-08T10:58:52;5.97;;;2.93;;
15876;SDS011;8037;51.666;7.834;2023-09-08T11:01:21;2.90;;;2.70;;
15876;SDS011;8037;51.666;7.834;2023-09-08T11:03:51;4.63;;;2.70;;
15876;SDS011;8037;51.666;7.834;2023-09-08T11:06:18;5.33;;;2.70;;
15876;SDS011;8037;51.666;7.834;2023-09-08T11:08:47;2.47;;;2.33;;
15876;SDS011;8037;51.666;7.834;2023-09-08T11:11:14;6.90;;;2.50;;
15876;SDS011;8037;51.666;7.834;2023-09-08T11:13:40;2.23;;;2.13;;
15876;SDS011;8037;51.666;7.834;2023-09-08T11:16:06;1.97;;;1.80;;
15876;SDS011;8037;51.666;7.834;2023-09-08T11:18:33;2.60;;;2.50;;
15876;SDS011;8037;51.666;7.834;2023-09-08T11:21:00;2.40;;;2.30;;
15876;SDS011;8037;51.666;7.834;2023-09-08T11:23:33;3.10;;;2.90;;
15876;SDS011;8037;51.666;7.834;2023-09-08T11:25:59;3.03;;;2.80;;
15876;SDS011;8037;51.666;7.834;2023-09-08T11:28:28;2.30;;;2.10;;
15876;SDS011;8037;51.666;7.834;2023-09-08T11:30:54;2.90;;;2.20;;
15876;SDS011;8037;51.666;7.834;2023-09-08T11:33:21;2.40;;;2.30;;
15876;SDS011;8037;51.666;7.834;2023-09-08T11:35:49;2.30;;;2.10;;
15876;SDS011;8037;51.666;7.834;2023-09-08T11:38:16;3.13;;;2.50;;
15876;SDS011;8037;51.666;7.834;2023-09-08T11:40:42;2.00;;;1.90;;
15876;SDS011;8037;51.666;7.834;2023-09-08T11:43:08;2.67;;;2.47;;
15876;SDS011;8037;51.666;7.834;2023-09-08T11:45:34;3.03;;;2.60;;
15876;SDS011;8037;51.666;7.834;2023-09-08T11:48:00;3.10;;;2.80;;
15876;SDS011;8037;51.666;7.834;2023-09-08T11:50:26;2.20;;;2.10;;
15876;SDS011;8037;51.666;7.834;2023-09-08T11:52:52;5.70;;;2.67;;
15876;SDS011;8037;51.666;7.834;2023-09-08T11:55:19;2.50;;;2.30;;
15876;SDS011;8037;51.666;7.834;2023-09-08T11:57:46;4.60;;;1.93;;
15876;SDS011;8037;51.666;7.834;2023-09-08T12:00:13;3.80;;;2.70;;
15876;SDS011;8037;51.666;7.834;2023-09-08T12:02:42;2.07;;;1.97;;
15876;SDS011;8037;51.666;7.834;2023-09-08T12:05:11;2.20;;;2.10;;
15876;SDS011;8037;51.666;7.834;2023-09-08T12:07:38;4.03;;;2.80;;
15876;SDS011;8037;51.666;7.834;2023-09-08T12:10:10;2.87;;;2.67;;
15876;SDS011;8037;51.666;7.834;2023-09-08T12:12:43;5.63;;;2.50;;
15876;SDS011;8037;51.666;7.834;2023-09-08T12:15:10;11.13;;;2.10;;
15876;SDS011;8037;51.666;7.834;2023-09-08T12:17:49;2.00;;;1.87;;
15876;SDS011;8037;51.666;7.834;2023-09-08T12:20:15;2.40;;;2.20;;
15876;SDS011;8037;51.666;7.834;2023-09-08T12:22:48;2.50;;;2.30;;
15876;SDS011;8037;51.666;7.834;2023-09-08T12:25:15;3.37;;;1.87;;
15876;SDS011;8037;51.666;7.834;2023-09-08T12:27:41;2.07;;;1.97;;
15876;SDS011;8037;51.666;7.834;2023-09-08T12:30:08;2.60;;;2.40;;
15876;SDS011;8037;51.666;7.834;2023-09-08T12:32:34;2.30;;;2.10;;
15876;SDS011;8037;51.666;7.834;2023-09-08T12:35:02;4.20;;;3.00;;
15876;SDS011;8037;51.666;7.834;2023-09-08T12:37:29;6.20;;;2.83;;
15876;SDS011;8037;51.666;7.834;2023-09-08T12:39:56;3.97;;;3.57;;
15876;SDS011;8037;51.666;7.834;2023-09-08T12:42:22;3.53;;;2.80;;
15876;SDS011;8037;51.666;7.834;2023-09-08T12:44:53;10.27;;;2.70;;
15876;SDS011;8037;51.666;7.834;2023-09-08T12:47:19;6.13;;;2.00;;
15876;SDS011;8037;51.666;7.834;2023-09-08T12:49:45;3.80;;;2.40;;
15876;SDS011;8037;51.666;7.834;2023-09-08T12:52:11;2.83;;;2.40;;
15876;SDS011;8037;51.666;7.834;2023-09-08T12:54:37;3.00;;;2.80;;
15876;SDS011;8037;51.666;7.834;2023-09-08T12:57:03;2.63;;;2.43;;
15876;SDS011;8037;51.666;7.834;2023-09-08T12:59:29;2.50;;;2.30;;
15876;SDS011;8037;51.666;7.834;2023-09-08T13:01:55;2.90;;;2.53;;
15876;SDS011;8037;51.666;7.834;2023-09-08T13:04:22;6.80;;;3.43;;
15876;SDS011;8037;51.666;7.834;2023-09-08T13:06:49;3.53;;;2.70;;
15876;SDS011;8037;51.666;7.834;2023-09-08T13:09:15;2.20;;;2.10;;
15876;SDS011;8037;51.666;7.834;2023-09-08T13:11:41;4.10;;;2.00;;
15876;SDS011;8037;51.666;7.834;2023-09-08T13:14:07;3.10;;;2.57;;
15876;SDS011;8037;51.666;7.834;2023-09-08T13:16:34;2.37;;;2.17;;
15876;SDS011;8037;51.666;7.834;2023-09-08T13:18:59;2.43;;;2.23;;
15876;SDS011;8037;51.666;7.834;2023-09-08T13:21:25;2.50;;;2.20;;
15876;SDS011;8037;51.666;7.834;2023-09-08T13:23:51;5.60;;;3.63;;
15876;SDS011;8037;51.666;7.834;2023-09-08T13:26:17;1.87;;;1.77;;
15876;SDS011;8037;51.666;7.834;2023-09-08T13:28:43;4.63;;;3.37;;
15876;SDS011;8037;51.666;7.834;2023-09-08T13:31:09;8.20;;;3.90;;
15876;SDS011;8037;51.666;7.834;2023-09-08T13:33:35;9.57;;;4.43;;
15876;SDS011;8037;51.666;7.834;2023-09-08T13:36:01;9.13;;;6.70;;
15876;SDS011;8037;51.666;7.834;2023-09-08T13:38:27;2.70;;;2.50;;
15876;SDS011;8037;51.666;7.834;2023-09-08T13:40:53;4.20;;;3.80;;
15876;SDS011;8037;51.666;7.834;2023-09-08T13:43:19;3.20;;;2.23;;
15876;SDS011;8037;51.666;7.834;2023-09-08T13:45:44;2.50;;;2.30;;
15876;SDS011;8037;51.666;7.834;2023-09-08T13:48:10;2.27;;;2.17;;
15876;SDS011;8037;51.666;7.834;2023-09-08T13:50:37;2.17;;;1.97;;
15876;SDS011;8037;51.666;7.834;2023-09-08T13:53:07;12.17;;;3.00;;
15876;SDS011;8037;51.666;7.834;2023-09-08T13:55:32;6.40;;;2.57;;
15876;SDS011;8037;51.666;7.834;2023-09-08T13:57:58;2.10;;;2.00;;
15876;SDS011;8037;51.666;7.834;2023-09-08T14:00:24;1.90;;;1.70;;
15876;SDS011;8037;51.666;7.834;2023-09-08T14:02:50;6.43;;;2.23;;
15876;SDS011;8037;51.666;7.834;2023-09-08T14:05:16;2.40;;;2.20;;
15876;SDS011;8037;51.666;7.834;2023-09-08T14:07:42;4.20;;;1.93;;
15876;SDS011;8037;51.666;7.834;2023-09-08T14:10:08;4.90;;;2.80;;
15876;SDS011;8037;51.666;7.834;2023-09-08T14:12:34;2.10;;;2.00;;
15876;SDS011;8037;51.666;7.834;2023-09-08T14:15:00;2.80;;;1.43;;
15876;SDS011;8037;51.666;7.834;2023-09-08T14:17:26;2.57;;;2.37;;
15876;SDS011;8037;51.666;7.834;2023-09-08T14:19:52;3.53;;;2.10;;
15876;SDS011;8037;51.666;7.834;2023-09-08T14:22:21;2.20;;;2.00;;
15876;SDS011;8037;51.666;7.834;2023-09-08T14:24:47;3.00;;;2.73;;
15876;SDS011;8037;51.666;7.834;2023-09-08T14:27:13;4.73;;;2.00;;
15876;SDS011;8037;51.666;7.834;2023-09-08T14:29:39;3.80;;;2.00;;
15876;SDS011;8037;51.666;7.834;2023-09-08T14:32:05;5.07;;;2.43;;
15876;SDS011;8037;51.666;7.834;2023-09-08T14:34:31;6.87;;;2.23;;
15876;SDS011;8037;51.666;7.834;2023-09-08T14:36:57;2.17;;;1.97;;
15876;SDS011;8037;51.666;7.834;2023-09-08T14:39:23;4.03;;;2.23;;
15876;SDS011;8037;51.666;7.834;2023-09-08T14:41:49;2.27;;;2.07;;
15876;SDS011;8037;51.666;7.834;2023-09-08T14:44:17;2.10;;;1.97;;
15876;SDS011;8037;51.666;7.834;2023-09-08T14:46:43;2.80;;;2.20;;
15876;SDS011;8037;51.666;7.834;2023-09-08T14:49:09;2.60;;;2.40;;
15876;SDS011;8037;51.666;7.834;2023-09-08T14:51:39;5.80;;;1.77;;
15876;SDS011;8037;51.666;7.834;2023-09-08T14:54:05;3.93;;;2.40;;
15876;SDS011;8037;51.666;7.834;2023-09-08T14:56:31;3.07;;;2.87;;
15876;SDS011;8037;51.666;7.834;2023-09-08T14:58:57;2.10;;;2.00;;
15876;SDS011;8037;51.666;7.834;2023-09-08T15:01:24;2.10;;;1.83;;
15876;SDS011;8037;51.666;7.834;2023-09-08T15:03:50;4.17;;;2.57;;
15876;SDS011;8037;51.666;7.834;2023-09-08T15:06:16;2.50;;;2.40;;